HLN weather

Helena Regional Airport
Helena, Montana, United States

Public forecast

Using degrees Fahrenheit for public forecast. Weather courtesy of forecast.io.

METAR (pilot weather report)

Retrieved 2019/05/19 23:53 UTC (58 minutes ago):

KHLN 192353Z 08014KT 10SM OVC041 07/M01 A2989 RMK AO2 SLP148 T00721006 10083 20072 55006

TAF (pilot weather forecast)

Forecast is more than 12 hours old.

Retrieved 2019/05/19 00:39 UTC (1 day ago):

TAF KHLN 192336Z 2000/2024 06011KT P6SM SCT040 BKN070 FM200600 32011KT P6SM SCT040 BKN080 FM201500 01010KT P6SM SCT040 BKN080 PROB30 2016/2021 -SHRA BKN035